createdAt,value
2018-12-10T00:01:46.104Z,5.20
2018-12-10T00:04:14.392Z,5.10
2018-12-10T00:06:42.636Z,5.10
2018-12-10T00:09:10.882Z,5.00
2018-12-10T00:11:39.157Z,5.10
2018-12-10T00:14:07.412Z,5.10
2018-12-10T00:16:35.731Z,5.10
2018-12-10T00:19:04.280Z,5.20
2018-12-10T00:21:32.516Z,5.10
2018-12-10T00:24:01.723Z,5.10
2018-12-10T00:26:30.438Z,5.00
2018-12-10T00:28:58.852Z,5.10
2018-12-10T00:31:27.115Z,5.20
2018-12-10T00:33:55.686Z,5.20
2018-12-10T00:36:24.274Z,5.20
2018-12-10T00:38:53.723Z,5.10
2018-12-10T00:41:21.972Z,5.10
2018-12-10T00:43:50.196Z,5.10
2018-12-10T00:46:18.636Z,5.10
2018-12-10T00:48:46.953Z,5.10
2018-12-10T00:51:15.293Z,5.00
2018-12-10T00:53:43.558Z,5.00
2018-12-10T00:56:12.336Z,5.00
2018-12-10T00:58:40.616Z,5.00
2018-12-10T01:01:08.869Z,5.00
2018-12-10T01:03:37.493Z,4.90
2018-12-10T01:06:05.758Z,4.90
2018-12-10T01:08:33.996Z,4.90
2018-12-10T01:11:03.153Z,5.00
2018-12-10T01:13:31.407Z,4.90
2018-12-10T01:16:00.015Z,4.90
2018-12-10T01:18:28.345Z,4.90
2018-12-10T01:20:56.597Z,4.90
2018-12-10T01:23:24.936Z,4.90
2018-12-10T01:25:53.178Z,5.00
2018-12-10T01:28:21.436Z,5.00
2018-12-10T01:30:49.709Z,5.00
2018-12-10T01:33:17.959Z,5.00
2018-12-10T01:35:46.176Z,5.00
2018-12-10T01:38:14.459Z,5.00
2018-12-10T01:40:42.701Z,5.00
2018-12-10T01:43:11.127Z,5.00
2018-12-10T01:45:39.492Z,5.00
2018-12-10T01:48:07.769Z,5.00
2018-12-10T01:50:36.227Z,4.90
2018-12-10T01:53:04.548Z,4.80
2018-12-10T01:55:32.786Z,4.70
2018-12-10T01:58:01.544Z,4.70
2018-12-10T02:00:29.994Z,4.70
2018-12-10T02:02:58.242Z,4.80
2018-12-10T02:05:26.503Z,4.80
2018-12-10T02:07:54.892Z,4.70
2018-12-10T02:10:23.550Z,4.80
2018-12-10T02:12:51.783Z,4.70
2018-12-10T02:15:20.020Z,4.80
2018-12-10T02:17:48.295Z,4.70
2018-12-10T02:20:16.569Z,4.70
2018-12-10T02:22:44.969Z,4.80
2018-12-10T02:25:13.245Z,4.70
2018-12-10T02:27:41.480Z,4.80
2018-12-10T02:30:09.818Z,4.80
2018-12-10T02:32:38.067Z,4.80
2018-12-10T02:35:06.321Z,4.80
2018-12-10T02:37:34.623Z,4.70
2018-12-10T02:40:02.961Z,4.80
2018-12-10T02:42:32.104Z,4.70
2018-12-10T02:45:00.320Z,4.60
2018-12-10T02:47:28.643Z,4.60
2018-12-10T02:49:56.896Z,4.60
2018-12-10T02:52:25.165Z,4.70
2018-12-10T02:54:53.466Z,4.80
2018-12-10T02:57:21.809Z,4.70
2018-12-10T02:59:50.078Z,4.70
2018-12-10T03:02:18.324Z,4.70
2018-12-10T03:04:46.850Z,4.60
2018-12-10T03:07:15.436Z,4.60
2018-12-10T03:09:43.912Z,4.70
2018-12-10T03:12:12.162Z,4.70
2018-12-10T03:14:40.390Z,4.60
2018-12-10T03:17:09.956Z,4.60
2018-12-10T03:19:38.456Z,4.70
2018-12-10T03:22:06.802Z,4.60
2018-12-10T03:24:35.107Z,4.70
2018-12-10T03:27:03.856Z,4.70
2018-12-10T03:29:32.098Z,4.70
2018-12-10T03:32:00.358Z,4.70
2018-12-10T03:34:28.665Z,4.60
2018-12-10T03:36:57.020Z,4.60
2018-12-10T03:39:25.263Z,4.60
2018-12-10T03:41:53.589Z,4.60
2018-12-10T03:44:21.981Z,4.60
2018-12-10T03:46:50.300Z,4.60
2018-12-10T03:49:18.604Z,4.60
2018-12-10T03:51:46.923Z,4.60
2018-12-10T03:54:15.250Z,4.60
2018-12-10T03:56:43.523Z,4.60
2018-12-10T03:59:11.852Z,4.70
2018-12-10T04:01:40.213Z,4.70
2018-12-10T04:04:08.434Z,4.60
2018-12-10T04:06:36.679Z,4.60
2018-12-10T04:09:05.994Z,4.50
2018-12-10T04:11:34.253Z,4.60
2018-12-10T04:14:03.106Z,4.60
2018-12-10T04:16:31.462Z,4.60
2018-12-10T04:18:59.758Z,4.70
2018-12-10T04:21:28.315Z,4.50
2018-12-10T04:23:56.595Z,4.60
2018-12-10T04:26:24.954Z,4.50
2018-12-10T04:28:53.731Z,4.50
2018-12-10T04:31:22.051Z,4.50
2018-12-10T04:36:23.697Z,4.60
2018-12-10T04:38:52.005Z,4.60
2018-12-10T04:41:20.226Z,4.60
2018-12-10T04:43:48.520Z,4.40
2018-12-10T04:46:16.902Z,4.30
2018-12-10T04:48:45.100Z,4.40
2018-12-10T04:51:13.331Z,4.30
2018-12-10T04:53:41.761Z,4.40
2018-12-10T04:56:13.698Z,4.40
2018-12-10T04:58:45.725Z,4.30
2018-12-10T05:01:14.164Z,4.30
2018-12-10T05:03:42.556Z,4.30
2018-12-10T05:06:23.536Z,4.20
2018-12-10T05:08:52.172Z,4.10
2018-12-10T05:11:20.468Z,4.10
2018-12-10T05:13:48.816Z,4.10
2018-12-10T05:16:16.995Z,4.20
2018-12-10T05:18:55.445Z,4.00
2018-12-10T05:21:33.135Z,3.90
2018-12-10T05:27:02.339Z,3.50
2018-12-10T05:29:33.852Z,3.00
2018-12-10T05:32:03.009Z,3.00
2018-12-10T05:34:31.599Z,2.70
2018-12-10T05:37:03.946Z,2.40
2018-12-10T05:45:37.277Z,1.90
2018-12-10T05:51:04.342Z,1.80
2018-12-10T05:53:36.200Z,1.80
2018-12-10T05:56:04.604Z,1.70
2018-12-10T05:58:33.018Z,1.60
2018-12-10T06:01:01.800Z,1.70
2018-12-10T06:03:30.252Z,1.80
2018-12-10T06:06:03.996Z,1.90
2018-12-10T06:08:38.068Z,2.00
2018-12-10T06:11:18.782Z,2.10
2018-12-10T06:13:50.277Z,2.10
2018-12-10T06:22:21.140Z,2.20
2018-12-10T06:30:48.549Z,2.40
2018-12-10T06:33:20.720Z,2.40
2018-12-10T06:35:49.667Z,2.30
2018-12-10T06:41:14.649Z,2.40
2018-12-10T06:43:49.253Z,2.30
2018-12-10T06:46:33.919Z,2.30
2018-12-10T06:49:02.615Z,2.50
2018-12-10T06:51:31.267Z,2.50
2018-12-10T06:53:59.564Z,2.60
2018-12-10T06:56:28.264Z,2.70
2018-12-10T06:58:56.508Z,2.70
2018-12-10T07:01:25.661Z,2.60
2018-12-10T07:03:54.247Z,2.70
2018-12-10T07:06:23.273Z,2.70
2018-12-10T07:08:51.504Z,2.70
2018-12-10T07:11:20.704Z,2.80
2018-12-10T07:13:48.911Z,2.70
2018-12-10T07:16:17.351Z,2.80
2018-12-10T07:18:45.744Z,2.80
2018-12-10T07:21:19.987Z,2.90
2018-12-10T07:23:52.303Z,3.00
2018-12-10T07:26:20.524Z,3.10
2018-12-10T07:28:48.932Z,3.10
2018-12-10T07:31:17.493Z,3.20
2018-12-10T07:36:41.654Z,3.20
2018-12-10T07:39:09.952Z,3.10
2018-12-10T07:41:38.675Z,3.10
2018-12-10T07:44:06.896Z,3.10
2018-12-10T07:46:35.105Z,3.20
2018-12-10T07:49:03.686Z,3.30
2018-12-10T07:51:32.127Z,3.30
2018-12-10T07:54:00.365Z,3.20
2018-12-10T07:56:29.113Z,3.30
2018-12-10T07:58:57.904Z,3.40
2018-12-10T08:01:26.335Z,3.40
2018-12-10T08:03:55.020Z,3.40
2018-12-10T08:06:24.064Z,3.30
2018-12-10T08:08:52.253Z,3.30
2018-12-10T08:11:20.476Z,3.20
2018-12-10T08:13:48.683Z,3.30
2018-12-10T08:16:16.936Z,3.20
2018-12-10T08:18:45.620Z,3.20
2018-12-10T08:21:14.102Z,3.20
2018-12-10T08:23:42.365Z,3.30
2018-12-10T08:26:10.879Z,3.20
2018-12-10T08:28:39.199Z,3.20
2018-12-10T08:31:07.429Z,3.20
2018-12-10T08:33:35.711Z,3.30
2018-12-10T08:36:04.138Z,3.40
2018-12-10T08:38:32.345Z,3.60
2018-12-10T08:41:00.665Z,3.70
2018-12-10T08:43:29.071Z,3.60
2018-12-10T08:48:48.803Z,3.60
2018-12-10T08:51:17.138Z,3.60
2018-12-10T08:53:45.740Z,3.50
2018-12-10T08:56:13.938Z,3.50
2018-12-10T08:58:42.115Z,3.50
2018-12-10T09:01:10.403Z,3.60
2018-12-10T09:03:38.647Z,3.80
2018-12-10T09:06:07.225Z,4.00
2018-12-10T09:08:35.520Z,3.90
2018-12-10T09:11:03.792Z,4.00
2018-12-10T09:13:32.051Z,4.20
2018-12-10T09:16:00.311Z,4.30
2018-12-10T09:18:28.520Z,4.40
2018-12-10T09:20:56.950Z,4.60
2018-12-10T09:23:25.225Z,4.60
2018-12-10T09:25:53.632Z,4.50
2018-12-10T09:28:22.061Z,4.60
2018-12-10T09:30:50.276Z,4.60
2018-12-10T09:33:18.507Z,4.40
2018-12-10T09:35:47.012Z,4.30
2018-12-10T09:38:15.263Z,4.20
2018-12-10T09:40:44.600Z,4.20
2018-12-10T09:43:13.014Z,4.40
2018-12-10T09:45:41.657Z,4.40
2018-12-10T09:48:10.084Z,4.50
2018-12-10T09:50:38.477Z,4.60
2018-12-10T09:53:06.816Z,4.60
2018-12-10T09:55:35.318Z,4.60
2018-12-10T09:58:04.066Z,4.50
2018-12-10T10:00:34.661Z,4.50
2018-12-10T10:03:03.612Z,4.60
2018-12-10T10:05:32.332Z,4.90
2018-12-10T10:08:00.571Z,5.10
2018-12-10T10:10:28.768Z,5.00
2018-12-10T10:12:57.025Z,5.00
2018-12-10T10:15:25.777Z,5.00
2018-12-10T10:17:53.966Z,5.00
2018-12-10T10:20:23.563Z,5.00
2018-12-10T10:22:51.961Z,5.00
2018-12-10T10:25:20.244Z,4.90
2018-12-10T10:27:48.445Z,4.90
2018-12-10T10:30:16.964Z,5.00
2018-12-10T10:32:45.195Z,4.90
2018-12-10T10:35:13.436Z,5.00
2018-12-10T10:37:41.716Z,4.80
2018-12-10T10:40:10.004Z,4.70
2018-12-10T10:45:35.237Z,4.80
2018-12-10T10:48:15.782Z,4.90
2018-12-10T10:50:45.684Z,4.90
2018-12-10T10:56:34.662Z,5.10
2018-12-10T10:59:12.724Z,5.00
2018-12-10T11:01:47.156Z,5.20
2018-12-10T11:04:15.425Z,5.20
2018-12-10T11:06:44.129Z,5.20
2018-12-10T11:09:15.658Z,5.10
2018-12-10T11:11:42.888Z,5.10
2018-12-10T11:14:11.148Z,5.00
2018-12-10T11:16:39.425Z,4.90
2018-12-10T11:19:08.732Z,4.90
2018-12-10T11:21:36.965Z,4.80
2018-12-10T11:24:05.543Z,4.80
2018-12-10T11:26:33.746Z,4.80
2018-12-10T11:29:02.522Z,4.80
2018-12-10T11:31:30.774Z,4.90
2018-12-10T11:33:59.172Z,4.90
2018-12-10T11:36:31.287Z,4.80
2018-12-10T11:38:59.712Z,4.90
2018-12-10T11:41:27.928Z,4.90
2018-12-10T11:43:56.225Z,4.80
2018-12-10T11:46:24.696Z,4.80
2018-12-10T11:48:53.116Z,4.90
2018-12-10T11:51:21.433Z,5.10
2018-12-10T11:53:49.651Z,5.10
2018-12-10T11:56:18.056Z,5.10
2018-12-10T11:58:46.319Z,5.20
2018-12-10T12:01:14.728Z,5.20
2018-12-10T12:03:42.955Z,5.10
2018-12-10T12:06:11.153Z,5.10
2018-12-10T12:08:39.359Z,5.20
2018-12-10T12:11:07.561Z,5.40
2018-12-10T12:13:36.252Z,5.30
2018-12-10T12:16:05.418Z,5.20
2018-12-10T12:18:36.251Z,5.20
2018-12-10T12:21:04.694Z,5.30
2018-12-10T12:23:33.725Z,5.30
2018-12-10T12:26:03.019Z,5.20
2018-12-10T12:28:31.245Z,5.10
2018-12-10T12:30:59.503Z,5.10
2018-12-10T12:33:27.730Z,5.20
2018-12-10T12:35:55.934Z,5.30
2018-12-10T12:38:24.573Z,5.40
2018-12-10T12:40:52.944Z,5.40
2018-12-10T12:43:21.272Z,5.50
2018-12-10T12:45:50.112Z,5.50
2018-12-10T12:48:18.519Z,5.40
2018-12-10T12:50:47.126Z,5.30
2018-12-10T12:53:16.139Z,5.20
2018-12-10T12:55:45.158Z,5.20
2018-12-10T12:58:13.859Z,5.20
2018-12-10T13:00:43.262Z,5.30
2018-12-10T13:03:12.389Z,5.20
2018-12-10T13:05:40.973Z,5.10
2018-12-10T13:08:09.470Z,5.10
2018-12-10T13:10:56.418Z,5.20
2018-12-10T13:13:29.054Z,5.20
2018-12-10T13:16:01.927Z,5.20
2018-12-10T13:18:34.284Z,5.20
2018-12-10T13:33:16.800Z,5.10
2018-12-10T13:35:48.962Z,5.00
2018-12-10T13:38:21.480Z,5.00
2018-12-10T13:40:53.281Z,5.10
2018-12-10T13:46:30.634Z,5.00
2018-12-10T13:49:05.929Z,4.80
2018-12-10T13:51:36.776Z,4.70
2018-12-10T13:54:08.613Z,4.60
2018-12-10T13:56:37.021Z,4.60
2018-12-10T14:02:12.166Z,4.40
2018-12-10T14:04:50.455Z,4.40
2018-12-10T14:10:16.315Z,4.30
2018-12-10T14:12:44.587Z,4.30
2018-12-10T14:15:12.976Z,4.40
2018-12-10T14:17:41.804Z,4.40
2018-12-10T14:23:19.534Z,4.30
2018-12-10T14:29:03.270Z,4.20
2018-12-10T14:31:34.697Z,4.20
2018-12-10T14:34:10.482Z,4.20
2018-12-10T14:42:56.031Z,4.20
2018-12-10T14:54:31.750Z,3.90
2018-12-10T14:57:02.771Z,3.90
2018-12-10T15:02:35.258Z,3.90
2018-12-10T15:17:18.145Z,3.90
2018-12-10T15:19:50.241Z,4.00
2018-12-10T15:25:22.623Z,4.00
2018-12-10T15:30:56.478Z,4.10
2018-12-10T15:45:31.629Z,3.80
2018-12-10T15:54:07.164Z,3.90
2018-12-10T15:56:38.705Z,3.90
2018-12-10T16:07:50.604Z,4.10
2018-12-10T16:19:28.986Z,4.10
2018-12-10T16:31:09.821Z,3.90
2018-12-10T16:36:46.312Z,4.10
2018-12-10T16:45:29.749Z,3.90
2018-12-10T16:51:04.633Z,3.70
2018-12-10T17:21:00.921Z,3.70
2018-12-10T17:23:36.924Z,3.70
2018-12-10T17:26:07.393Z,3.80
2018-12-10T17:55:56.908Z,3.80
2018-12-10T18:01:35.037Z,3.90
2018-12-10T18:28:31.416Z,3.90
2018-12-10T19:04:23.968Z,4.10
2018-12-10T19:19:08.096Z,3.90
2018-12-10T19:21:41.250Z,3.70
2018-12-10T19:24:12.884Z,3.60
2018-12-10T19:29:56.899Z,2.10
2018-12-10T19:32:29.128Z,1.80
2018-12-10T19:35:01.754Z,1.70
2018-12-10T19:40:32.247Z,1.70
2018-12-10T19:43:02.509Z,1.60
2018-12-10T19:45:37.081Z,1.70
2018-12-10T19:48:06.097Z,1.80
2018-12-10T19:50:34.837Z,1.70
2018-12-10T19:53:10.780Z,1.70
2018-12-10T21:48:32.146Z,1.60
2018-12-10T21:57:05.988Z,1.60
2018-12-10T22:05:31.619Z,1.70
2018-12-10T22:23:21.536Z,1.80
2018-12-10T22:56:38.437Z,1.80
